Weather at Faa'a International Airport

Public forecast

Using degrees Celsius for public forecast. Weather courtesy of forecast.io.

Current aviation weather report (METAR) for Faa'a International Airport

2024/05/28 04:00 (retrieved 17 minutes ago)

NTAA 280400Z VRB02KT 9999 FEW025 SCT270 28/21 Q1014 WS R22 NOSIG

Closest aviation forecast (TAF) to Faa'a International Airport

Forecast is more than 12 hours old.

Closest forecast is MarĂ© Airport, 2,401.4 nm (4,447.5 km) WSW.

2024/05/26 15:00 Ammendment (retrieved 2 days ago)

TAF AMD NWWR 260500Z 2615/2706 CNL